createdAt,value
2022-12-04T00:00:28.796Z,1.04
2022-12-04T00:01:28.885Z,1.04
2022-12-04T00:02:29.103Z,1.04
2022-12-04T00:03:29.189Z,1.04
2022-12-04T00:04:29.277Z,1.04
2022-12-04T00:05:29.387Z,1.04
2022-12-04T00:06:29.559Z,1.04
2022-12-04T00:07:29.784Z,1.04
2022-12-04T00:08:29.868Z,1.04
2022-12-04T00:09:30.017Z,1.04
2022-12-04T00:10:30.162Z,1.04
2022-12-04T00:11:30.321Z,1.04
2022-12-04T00:12:30.452Z,1.04
2022-12-04T00:13:30.613Z,1.04
2022-12-04T00:14:30.748Z,1.04
2022-12-04T00:15:30.914Z,1.04
2022-12-04T00:16:31.107Z,1.04
2022-12-04T00:17:31.162Z,1.04
2022-12-04T00:18:31.274Z,1.04
2022-12-04T00:19:31.410Z,1.04
2022-12-04T00:20:31.571Z,1.04
2022-12-04T00:21:31.676Z,1.04
2022-12-04T00:22:31.892Z,1.04
2022-12-04T00:23:31.959Z,1.04
2022-12-04T00:24:32.128Z,1.04
2022-12-04T00:25:35.296Z,1.04
2022-12-04T00:26:32.429Z,1.04
2022-12-04T00:27:32.588Z,1.04
2022-12-04T00:28:32.727Z,1.04
2022-12-04T00:29:32.880Z,1.04
2022-12-04T00:30:33.029Z,1.04
2022-12-04T00:31:33.268Z,1.04
2022-12-04T00:32:33.328Z,1.04
2022-12-04T00:33:33.483Z,1.04
2022-12-04T00:34:33.641Z,1.04
2022-12-04T00:35:33.780Z,1.04
2022-12-04T00:36:33.961Z,1.04
2022-12-04T00:37:34.092Z,1.04
2022-12-04T00:38:34.204Z,1.04
2022-12-04T00:39:34.343Z,1.04
2022-12-04T00:40:34.505Z,1.04
2022-12-04T00:41:34.650Z,1.04
2022-12-04T00:42:34.802Z,1.04
2022-12-04T00:43:35.019Z,1.04
2022-12-04T00:44:35.834Z,1.04
2022-12-04T00:45:35.303Z,1.04
2022-12-04T00:46:35.343Z,1.04
2022-12-04T00:47:35.450Z,1.04
2022-12-04T00:48:35.602Z,1.04
2022-12-04T00:49:35.754Z,1.04
2022-12-04T00:50:35.857Z,1.04
2022-12-04T00:51:36.001Z,1.04
2022-12-04T00:52:36.156Z,1.04
2022-12-04T00:53:36.323Z,1.04
2022-12-04T00:54:36.462Z,1.04
2022-12-04T00:55:36.607Z,1.04
2022-12-04T00:56:36.759Z,1.04
2022-12-04T00:57:36.915Z,1.04
2022-12-04T00:58:37.073Z,1.04
2022-12-04T00:59:37.226Z,1.04
2022-12-04T01:00:37.439Z,1.04
2022-12-04T01:01:37.541Z,1.04
2022-12-04T01:02:37.661Z,1.04
2022-12-04T01:03:37.733Z,1.04
2022-12-04T01:04:37.881Z,1.04
2022-12-04T01:05:38.032Z,1.04
2022-12-04T01:06:38.186Z,1.04
2022-12-04T01:07:38.373Z,1.04
2022-12-04T01:08:38.487Z,1.04
2022-12-04T01:09:38.634Z,1.04
2022-12-04T01:10:38.757Z,1.04
2022-12-04T01:11:38.886Z,1.04
2022-12-04T01:12:39.038Z,1.04
2022-12-04T01:13:39.199Z,1.04
2022-12-04T01:14:39.351Z,1.04
2022-12-04T01:15:39.483Z,1.04
2022-12-04T01:16:39.699Z,1.04
2022-12-04T01:17:39.810Z,1.04
2022-12-04T01:18:39.903Z,1.04
2022-12-04T01:19:40.055Z,1.04
2022-12-04T01:20:40.201Z,1.04
2022-12-04T01:21:40.292Z,1.04
2022-12-04T01:22:40.464Z,1.04
2022-12-04T01:23:40.605Z,1.04
2022-12-04T01:24:40.756Z,1.04
2022-12-04T01:25:40.908Z,1.04
2022-12-04T01:26:41.061Z,1.04
2022-12-04T01:27:41.170Z,1.04
2022-12-04T01:28:41.318Z,1.04
2022-12-04T01:29:41.461Z,1.04
2022-12-04T01:30:41.602Z,1.04
2022-12-04T01:31:41.868Z,1.04
2022-12-04T01:32:41.929Z,1.04
2022-12-04T01:33:42.076Z,1.04
2022-12-04T01:34:42.229Z,1.04
2022-12-04T01:35:42.365Z,1.04
2022-12-04T01:36:42.524Z,1.04
2022-12-04T01:37:42.681Z,1.04
2022-12-04T01:38:42.826Z,1.04
2022-12-04T01:39:42.975Z,1.04
2022-12-04T01:40:43.083Z,1.04
2022-12-04T01:41:43.187Z,1.04
2022-12-04T01:42:43.329Z,1.04
2022-12-04T01:43:43.486Z,1.04
2022-12-04T01:44:43.590Z,1.04
2022-12-04T01:45:43.839Z,1.04
2022-12-04T01:46:43.840Z,1.04
2022-12-04T01:47:43.986Z,1.04
2022-12-04T01:48:44.155Z,1.04
2022-12-04T01:49:44.298Z,1.04
2022-12-04T01:50:44.441Z,1.04
2022-12-04T01:51:44.596Z,1.04
2022-12-04T01:52:44.692Z,1.04
2022-12-04T01:53:44.841Z,1.04
2022-12-04T01:54:45.010Z,1.04
2022-12-04T01:55:45.146Z,1.04
2022-12-04T01:56:45.265Z,1.04
2022-12-04T01:57:45.405Z,1.04
2022-12-04T01:58:45.500Z,1.04
2022-12-04T01:59:45.668Z,1.04
2022-12-04T02:00:49.720Z,1.04
2022-12-04T02:01:46.032Z,1.04
2022-12-04T02:02:46.146Z,1.04
2022-12-04T02:03:46.267Z,1.04
2022-12-04T02:04:46.405Z,1.04
2022-12-04T02:05:46.570Z,1.04
2022-12-04T02:06:46.725Z,1.04
2022-12-04T02:07:46.919Z,1.04
2022-12-04T02:08:46.982Z,1.04
2022-12-04T02:09:47.132Z,1.04
2022-12-04T02:10:47.267Z,1.04
2022-12-04T02:11:47.427Z,1.04
2022-12-04T02:12:47.515Z,1.04
2022-12-04T02:13:47.678Z,1.04
2022-12-04T02:14:47.825Z,1.04
2022-12-04T02:15:47.963Z,1.04
2022-12-04T02:16:48.162Z,1.04
2022-12-04T02:17:48.233Z,1.04
2022-12-04T02:18:48.384Z,1.04
2022-12-04T02:19:48.535Z,1.04
2022-12-04T02:20:48.678Z,1.04
2022-12-04T02:21:48.855Z,1.04
2022-12-04T02:22:48.998Z,1.04
2022-12-04T02:23:49.150Z,1.04
2022-12-04T02:24:50.257Z,1.04
2022-12-04T02:25:49.451Z,1.04
2022-12-04T02:26:49.592Z,1.04
2022-12-04T02:27:49.745Z,1.04
2022-12-04T02:28:49.908Z,1.04
2022-12-04T02:29:50.060Z,1.04
2022-12-04T02:30:50.226Z,1.04
2022-12-04T02:31:50.295Z,1.04
2022-12-04T02:32:50.454Z,1.04
2022-12-04T02:33:50.604Z,1.04
2022-12-04T02:34:50.759Z,1.04
2022-12-04T02:35:50.915Z,1.04
2022-12-04T02:36:51.050Z,1.04
2022-12-04T02:37:51.218Z,1.04
2022-12-04T02:38:51.317Z,1.04
2022-12-04T02:39:51.470Z,1.04
2022-12-04T02:40:51.578Z,1.04
2022-12-04T02:41:51.733Z,1.04
2022-12-04T02:42:51.883Z,1.04
2022-12-04T02:43:52.017Z,1.04
2022-12-04T02:44:52.171Z,1.04
2022-12-04T02:45:52.357Z,1.04
2022-12-04T02:46:52.413Z,1.04
2022-12-04T02:47:52.573Z,1.04
2022-12-04T02:48:52.724Z,1.04
2022-12-04T02:49:53.095Z,1.04
2022-12-04T02:50:53.027Z,1.04
2022-12-04T02:51:53.177Z,1.04
2022-12-04T02:52:53.337Z,1.04
2022-12-04T02:53:53.480Z,1.04
2022-12-04T02:54:53.634Z,1.04
2022-12-04T02:55:53.826Z,1.04
2022-12-04T02:56:53.941Z,1.04
2022-12-04T02:57:54.105Z,1.04
2022-12-04T02:58:54.258Z,1.04
2022-12-04T02:59:54.721Z,1.04
2022-12-04T03:00:54.566Z,1.04
2022-12-04T03:01:54.678Z,1.04
2022-12-04T03:02:54.881Z,1.04
2022-12-04T03:03:54.904Z,1.04
2022-12-04T03:04:55.049Z,1.04
2022-12-04T03:05:55.211Z,1.04
2022-12-04T03:06:55.346Z,1.04
2022-12-04T03:07:55.519Z,1.04
2022-12-04T03:08:55.611Z,1.04
2022-12-04T03:09:56.067Z,1.04
2022-12-04T03:10:55.858Z,1.04
2022-12-04T03:11:55.979Z,1.04
2022-12-04T03:12:56.111Z,1.04
2022-12-04T03:13:56.278Z,1.04
2022-12-04T03:14:56.422Z,1.04
2022-12-04T03:15:56.559Z,1.04
2022-12-04T03:16:56.761Z,1.04
2022-12-04T03:17:56.864Z,1.04
2022-12-04T03:18:56.995Z,1.04
2022-12-04T03:19:58.011Z,1.04
2022-12-04T03:20:57.314Z,1.04
2022-12-04T03:21:57.527Z,1.04
2022-12-04T03:22:57.571Z,1.04
2022-12-04T03:23:57.707Z,1.04
2022-12-04T03:24:57.831Z,1.04
2022-12-04T03:25:57.993Z,1.04
2022-12-04T03:26:58.082Z,1.04
2022-12-04T03:27:58.227Z,1.04
2022-12-04T03:28:58.381Z,1.04
2022-12-04T03:29:58.641Z,1.04
2022-12-04T03:30:58.837Z,1.04
2022-12-04T03:31:58.935Z,1.04
2022-12-04T03:32:59.086Z,1.04
2022-12-04T03:33:59.231Z,1.04
2022-12-04T03:34:59.388Z,1.04
2022-12-04T03:35:59.540Z,1.04
2022-12-04T03:36:59.659Z,1.04
2022-12-04T03:37:59.799Z,1.04
2022-12-04T03:38:59.944Z,1.04
2022-12-04T03:40:00.097Z,1.04
2022-12-04T03:41:00.248Z,1.04
2022-12-04T03:42:00.350Z,1.04
2022-12-04T03:43:00.516Z,1.04
2022-12-04T03:44:00.648Z,1.04
2022-12-04T03:45:00.763Z,1.04
2022-12-04T03:46:00.965Z,1.04
2022-12-04T03:47:01.006Z,1.04
2022-12-04T03:48:01.111Z,1.04
2022-12-04T03:49:01.278Z,1.04
2022-12-04T03:50:01.454Z,1.04
2022-12-04T03:51:01.569Z,1.04
2022-12-04T03:52:01.710Z,1.04
2022-12-04T03:53:01.801Z,1.04
2022-12-04T03:54:01.968Z,1.04
2022-12-04T03:55:02.065Z,1.04
2022-12-04T03:56:02.219Z,1.04
2022-12-04T03:57:02.331Z,1.04
2022-12-04T03:58:02.414Z,1.04
2022-12-04T03:59:02.615Z,1.04
2022-12-04T04:00:03.260Z,1.04
2022-12-04T04:01:02.909Z,1.04
2022-12-04T04:02:03.160Z,1.04
2022-12-04T04:03:03.220Z,1.04
2022-12-04T04:04:03.294Z,1.04
2022-12-04T04:05:03.440Z,1.04
2022-12-04T04:06:03.580Z,1.04
2022-12-04T04:07:03.744Z,1.04
2022-12-04T04:08:03.981Z,1.04
2022-12-04T04:09:03.994Z,1.04
2022-12-04T04:10:04.148Z,1.04
2022-12-04T04:11:04.292Z,1.04
2022-12-04T04:12:04.444Z,1.04
2022-12-04T04:13:04.601Z,1.04
2022-12-04T04:14:04.746Z,1.04
2022-12-04T04:15:04.907Z,1.04
2022-12-04T04:16:05.119Z,1.04
2022-12-04T04:17:05.145Z,1.04
2022-12-04T04:18:05.296Z,1.04
2022-12-04T04:19:05.449Z,1.04
2022-12-04T04:20:05.612Z,1.04
2022-12-04T04:21:05.771Z,1.04
2022-12-04T04:22:05.932Z,1.04
2022-12-04T04:23:06.058Z,1.04
2022-12-04T04:24:06.213Z,1.04
2022-12-04T04:25:06.372Z,1.04
2022-12-04T04:26:06.523Z,1.04
2022-12-04T04:27:06.613Z,1.04
2022-12-04T04:28:06.773Z,1.04
2022-12-04T04:29:06.905Z,1.04
2022-12-04T04:30:07.067Z,1.04
2022-12-04T04:31:07.297Z,1.04
2022-12-04T04:32:07.314Z,1.04
2022-12-04T04:33:07.467Z,1.04
2022-12-04T04:34:07.630Z,1.04
2022-12-04T04:35:07.783Z,1.04
2022-12-04T04:36:07.884Z,1.04
2022-12-04T04:37:08.024Z,1.04
2022-12-04T04:38:08.191Z,1.04
2022-12-04T04:39:08.282Z,1.04
2022-12-04T04:40:08.439Z,1.04
2022-12-04T04:41:08.588Z,1.04
2022-12-04T04:42:08.734Z,1.04
2022-12-04T04:43:08.882Z,1.04
2022-12-04T04:44:09.054Z,1.04
2022-12-04T04:45:09.195Z,1.04
2022-12-04T04:46:09.387Z,1.04
2022-12-04T04:47:09.440Z,1.04
2022-12-04T04:48:09.544Z,1.04
2022-12-04T04:49:09.703Z,1.04
2022-12-04T04:50:09.845Z,1.04
2022-12-04T04:51:09.995Z,1.04
2022-12-04T04:52:10.151Z,1.04
2022-12-04T04:53:10.250Z,1.04
2022-12-04T04:54:10.406Z,1.04
2022-12-04T04:55:10.561Z,1.04
2022-12-04T04:56:10.709Z,1.04
2022-12-04T04:57:10.861Z,1.04
2022-12-04T04:58:10.965Z,1.04
2022-12-04T04:59:11.113Z,1.04
2022-12-04T05:00:11.283Z,1.04
2022-12-04T05:01:11.582Z,1.04
2022-12-04T05:02:11.613Z,1.04
2022-12-04T05:03:11.758Z,1.04
2022-12-04T05:04:11.821Z,1.04
2022-12-04T05:05:11.916Z,1.04
2022-12-04T05:06:12.074Z,1.04
2022-12-04T05:07:12.183Z,1.04
2022-12-04T05:08:12.389Z,1.04
2022-12-04T05:09:12.475Z,1.04
2022-12-04T05:10:12.630Z,1.04
2022-12-04T05:11:12.722Z,1.04
2022-12-04T05:12:12.920Z,1.04
2022-12-04T05:13:13.024Z,1.04
2022-12-04T05:14:13.184Z,1.04
2022-12-04T05:15:13.294Z,1.04
2022-12-04T05:16:13.462Z,1.04
2022-12-04T05:17:13.548Z,1.04
2022-12-04T05:18:14.011Z,1.04
2022-12-04T05:19:14.159Z,1.04
2022-12-04T05:20:14.309Z,1.04
2022-12-04T05:21:14.089Z,1.04
2022-12-04T05:22:14.238Z,1.04
2022-12-04T05:23:14.397Z,1.04
2022-12-04T05:24:14.551Z,1.04
2022-12-04T05:25:14.702Z,1.04
2022-12-04T05:26:14.851Z,1.04
2022-12-04T05:27:15.016Z,1.04
2022-12-04T05:28:15.151Z,1.04
2022-12-04T05:29:15.309Z,1.04
2022-12-04T05:30:15.454Z,1.04
2022-12-04T05:31:15.663Z,1.04
2022-12-04T05:32:15.703Z,1.04
2022-12-04T05:33:15.864Z,1.04
2022-12-04T05:34:16.015Z,1.04
2022-12-04T05:35:16.175Z,1.04
2022-12-04T05:36:16.285Z,1.04
2022-12-04T05:37:16.414Z,1.04
2022-12-04T05:38:16.515Z,1.04
2022-12-04T05:39:16.667Z,1.04
2022-12-04T05:40:16.812Z,1.04
2022-12-04T05:41:16.960Z,1.04
2022-12-04T05:42:17.060Z,1.04
2022-12-04T05:43:17.222Z,1.04
2022-12-04T05:44:17.376Z,1.04
2022-12-04T05:45:17.479Z,1.04
2022-12-04T05:46:17.649Z,1.04
2022-12-04T05:47:17.728Z,1.04
2022-12-04T05:48:17.823Z,1.04
2022-12-04T05:49:17.983Z,1.04
2022-12-04T05:50:18.135Z,1.04
2022-12-04T05:51:18.316Z,1.04
2022-12-04T05:52:18.436Z,1.04
2022-12-04T05:53:18.577Z,1.04
2022-12-04T05:54:18.691Z,1.04
2022-12-04T05:55:18.848Z,1.04
2022-12-04T05:56:18.947Z,1.04
2022-12-04T05:57:19.087Z,1.04
2022-12-04T05:58:19.195Z,1.04
2022-12-04T05:59:19.352Z,1.04
2022-12-04T06:00:19.500Z,1.04
2022-12-04T06:01:19.639Z,1.04
2022-12-04T06:02:19.842Z,1.04
2022-12-04T06:03:20.015Z,1.04
2022-12-04T06:04:20.126Z,1.04
2022-12-04T06:05:20.258Z,1.04
2022-12-04T06:06:22.038Z,1.04
2022-12-04T06:07:20.571Z,1.04
2022-12-04T06:08:20.752Z,1.04
2022-12-04T06:09:20.859Z,1.04
2022-12-04T06:10:21.009Z,1.04
2022-12-04T06:11:21.165Z,1.04
2022-12-04T06:12:21.329Z,1.04
2022-12-04T06:13:21.475Z,1.04
2022-12-04T06:14:21.617Z,1.04
2022-12-04T06:15:21.726Z,1.04
2022-12-04T06:16:21.917Z,2
2022-12-04T06:17:21.964Z,2
2022-12-04T06:18:22.117Z,2
2022-12-04T06:19:22.274Z,2
2022-12-04T06:20:22.470Z,2
2022-12-04T06:21:22.586Z,3.04
2022-12-04T06:22:22.738Z,3.04
2022-12-04T06:23:22.890Z,3.04
2022-12-04T06:24:23.038Z,4
2022-12-04T06:25:23.190Z,4
2022-12-04T06:26:23.327Z,5.04
2022-12-04T06:27:27.862Z,6
2022-12-04T06:28:23.536Z,7.04
2022-12-04T06:29:23.687Z,8
2022-12-04T06:30:23.785Z,8
2022-12-04T06:31:23.898Z,9.04
2022-12-04T06:32:23.979Z,10
2022-12-04T06:33:24.127Z,11.04
2022-12-04T06:34:24.288Z,14
2022-12-04T06:35:24.449Z,16
2022-12-04T06:36:24.606Z,19.04
2022-12-04T06:37:24.708Z,23.04
2022-12-04T06:38:24.863Z,27.04
2022-12-04T06:39:24.947Z,32
2022-12-04T06:40:25.115Z,42
2022-12-04T06:41:25.223Z,48
2022-12-04T06:42:25.371Z,51.04
2022-12-04T06:43:25.517Z,54
2022-12-04T06:44:25.658Z,56
2022-12-04T06:45:25.866Z,58
2022-12-04T06:46:26.026Z,63.04
2022-12-04T06:47:26.099Z,71.04
2022-12-04T06:48:26.261Z,73.04
2022-12-04T06:49:26.434Z,83.04
2022-12-04T06:50:26.576Z,88
2022-12-04T06:51:26.714Z,98
2022-12-04T06:52:26.792Z,101.04
2022-12-04T06:53:26.964Z,116
2022-12-04T06:54:27.122Z,126
2022-12-04T06:55:27.222Z,139.04
2022-12-04T06:56:27.365Z,147.04
2022-12-04T06:57:27.529Z,153.04
2022-12-04T06:58:27.681Z,162
2022-12-04T06:59:27.790Z,168
2022-12-04T07:00:27.936Z,187.04
2022-12-04T07:01:28.108Z,200
2022-12-04T07:02:28.235Z,205.12
2022-12-04T07:03:28.283Z,226.08
2022-12-04T07:04:28.378Z,245.12
2022-12-04T07:05:28.479Z,267.04
2022-12-04T07:06:28.637Z,290.08
2022-12-04T07:07:28.801Z,314.08
2022-12-04T07:08:28.892Z,338.24
2022-12-04T07:09:29.045Z,367.04
2022-12-04T07:10:29.199Z,415.04
2022-12-04T07:11:29.357Z,433.28
2022-12-04T07:12:29.493Z,465.28
2022-12-04T07:13:29.653Z,483.2
2022-12-04T07:14:29.802Z,498.24
2022-12-04T07:15:29.969Z,518.08
2022-12-04T07:16:32.787Z,544
2022-12-04T07:17:30.285Z,552
2022-12-04T07:18:30.442Z,551.04
2022-12-04T07:19:30.594Z,582.08
2022-12-04T07:20:30.903Z,636.16
2022-12-04T07:21:30.856Z,667.52
2022-12-04T07:22:31.019Z,685.44
2022-12-04T07:23:31.167Z,697.6
2022-12-04T07:24:31.320Z,742.4
2022-12-04T07:25:31.426Z,777.6
2022-12-04T07:26:31.530Z,811.52
2022-12-04T07:27:31.674Z,791.04
2022-12-04T07:28:31.822Z,822.4
2022-12-04T07:29:31.923Z,818.56
2022-12-04T07:30:32.068Z,867.2
2022-12-04T07:31:32.362Z,902.4
2022-12-04T07:32:32.327Z,900.48
2022-12-04T07:33:32.423Z,943.36
2022-12-04T07:34:32.583Z,979.2
2022-12-04T07:35:32.704Z,954.24
2022-12-04T07:36:32.839Z,980.48
2022-12-04T07:37:32.993Z,987.52
2022-12-04T07:38:33.132Z,977.28
2022-12-04T07:39:33.231Z,1018.24
2022-12-04T07:40:33.383Z,1076.48
2022-12-04T07:41:33.557Z,1103.36
2022-12-04T07:42:33.723Z,1173.12
2022-12-04T07:43:33.825Z,1258.24
2022-12-04T07:44:33.936Z,1226.24
2022-12-04T07:45:34.150Z,1251.2
2022-12-04T07:46:34.212Z,1261.44
2022-12-04T07:47:34.283Z,1218.56
2022-12-04T07:48:34.451Z,1208.32
2022-12-04T07:49:34.595Z,1226.24
2022-12-04T07:50:34.744Z,1241.6
2022-12-04T07:51:34.896Z,1275.52
2022-12-04T07:52:35.067Z,1286.4
2022-12-04T07:53:35.211Z,1443.84
2022-12-04T07:54:35.317Z,1459.2
2022-12-04T07:55:35.465Z,1440
2022-12-04T07:56:35.621Z,1516.8
2022-12-04T07:57:35.762Z,1550.08
2022-12-04T07:58:35.910Z,1562.88
2022-12-04T07:59:36.071Z,1533.44
2022-12-04T08:00:36.208Z,1721.6
2022-12-04T08:01:36.435Z,1797.12
2022-12-04T08:02:36.470Z,1795.84
2022-12-04T08:03:37.063Z,1891.84
2022-12-04T08:04:36.865Z,2044.16
2022-12-04T08:05:36.921Z,2106.88
2022-12-04T08:06:37.081Z,2224.64
2022-12-04T08:07:37.300Z,2359.04
2022-12-04T08:08:37.385Z,2388.48
2022-12-04T08:09:37.550Z,2341.12
2022-12-04T08:10:37.684Z,2347.52
2022-12-04T08:11:37.833Z,2266.88
2022-12-04T08:12:37.985Z,2293.76
2022-12-04T08:13:38.140Z,2200.32
2022-12-04T08:14:38.280Z,2263.04
2022-12-04T08:15:38.379Z,2332.16
2022-12-04T08:16:38.613Z,2282.24
2022-12-04T08:17:38.702Z,2315.52
2022-12-04T08:18:38.846Z,2310.4
2022-12-04T08:19:38.995Z,2310.4
2022-12-04T08:20:39.143Z,2362.88
2022-12-04T08:21:39.256Z,2420.48
2022-12-04T08:22:39.394Z,2410.24
2022-12-04T08:23:39.553Z,2488.32
2022-12-04T08:24:39.710Z,2507.52
2022-12-04T08:25:39.847Z,2443.52
2022-12-04T08:26:39.966Z,2484.48
2022-12-04T08:27:43.238Z,2542.08
2022-12-04T08:28:40.256Z,2571.52
2022-12-04T08:29:40.405Z,2698.24
2022-12-04T08:30:40.573Z,2731.52
2022-12-04T08:31:40.719Z,2721.28
2022-12-04T08:32:40.814Z,2647.04
2022-12-04T08:33:40.965Z,2790.4
2022-12-04T08:34:41.108Z,2882.56
2022-12-04T08:35:41.216Z,2941.44
2022-12-04T08:36:41.317Z,2944
2022-12-04T08:37:41.490Z,2885.12
2022-12-04T08:38:41.627Z,2890.24
2022-12-04T08:39:41.769Z,2851.84
2022-12-04T08:40:41.886Z,2757.12
2022-12-04T08:41:42.035Z,2813.44
2022-12-04T08:42:42.186Z,2816
2022-12-04T08:43:42.332Z,2900.48
2022-12-04T08:44:42.494Z,2995.2
2022-12-04T08:45:42.740Z,3138.56
2022-12-04T08:46:42.789Z,3243.52
2022-12-04T08:47:43.208Z,3417.6
2022-12-04T08:48:42.990Z,3499.52
2022-12-04T08:49:43.137Z,3709.44
2022-12-04T08:50:43.276Z,3660.8
2022-12-04T08:51:43.438Z,3456
2022-12-04T08:52:43.587Z,3412.48
2022-12-04T08:53:43.738Z,3466.24
2022-12-04T08:54:43.896Z,3399.68
2022-12-04T08:55:44.042Z,3307.52
2022-12-04T08:56:44.202Z,3266.56
2022-12-04T08:57:44.359Z,3274.24
2022-12-04T08:58:44.449Z,3289.6
2022-12-04T08:59:44.565Z,3366.4
2022-12-04T09:00:44.720Z,3381.76
2022-12-04T09:01:44.909Z,3476.48
2022-12-04T09:02:45.011Z,3543.04
2022-12-04T09:03:45.199Z,3694.08
2022-12-04T09:04:45.427Z,3624.96
2022-12-04T09:05:45.466Z,3553.28
2022-12-04T09:06:45.575Z,3576.32
2022-12-04T09:07:45.701Z,3560.96
2022-12-04T09:08:45.814Z,3573.76
2022-12-04T09:09:48.332Z,3520
2022-12-04T09:10:46.118Z,3402.24
2022-12-04T09:11:46.261Z,3468.8
2022-12-04T09:12:46.422Z,3694.08
2022-12-04T09:13:46.583Z,3691.52
2022-12-04T09:14:46.733Z,3724.8
2022-12-04T09:15:46.915Z,3714.56
2022-12-04T09:16:46.969Z,3717.12
2022-12-04T09:17:47.137Z,3729.92
2022-12-04T09:18:47.280Z,3927.04
2022-12-04T09:19:47.429Z,3970.56
2022-12-04T09:20:47.587Z,4065.28
2022-12-04T09:21:47.741Z,4167.68
2022-12-04T09:23:03.196Z,4185.6
2022-12-04T09:23:47.978Z,4152.32
2022-12-04T09:24:48.098Z,4052.48
2022-12-04T09:25:48.234Z,3816.96
2022-12-04T09:26:48.387Z,3527.68
2022-12-04T09:27:48.544Z,3642.88
2022-12-04T09:28:48.689Z,3322.88
2022-12-04T09:29:48.842Z,3187.2
2022-12-04T09:30:48.988Z,3187.2
2022-12-04T09:31:49.040Z,3215.36
2022-12-04T09:32:49.143Z,3210.24
2022-12-04T09:33:49.307Z,3338.24
2022-12-04T09:34:52.600Z,3430.4
2022-12-04T09:35:49.624Z,3696.64
2022-12-04T09:36:49.708Z,3914.24
2022-12-04T09:37:49.830Z,4124.16
2022-12-04T09:38:49.898Z,4142.08
2022-12-04T09:39:50.040Z,4285.44
2022-12-04T09:40:50.177Z,4523.52
2022-12-04T09:41:50.379Z,4439.04
2022-12-04T09:42:50.496Z,4221.44
2022-12-04T09:43:50.651Z,4377.6
2022-12-04T09:44:50.799Z,4595.2
2022-12-04T09:45:50.936Z,4751.36
2022-12-04T09:46:51.586Z,4083.2
2022-12-04T09:47:51.269Z,3701.76
2022-12-04T09:48:51.419Z,3601.92
2022-12-04T09:49:51.577Z,3494.4
2022-12-04T09:50:51.706Z,3709.44
2022-12-04T09:51:51.787Z,3709.44
2022-12-04T09:52:51.931Z,3584
2022-12-04T09:53:52.079Z,3668.48
2022-12-04T09:54:52.232Z,3939.84
2022-12-04T09:55:52.380Z,3809.28
2022-12-04T09:56:52.525Z,3842.56
2022-12-04T09:57:55.900Z,3722.24
2022-12-04T09:58:52.827Z,3763.2
2022-12-04T09:59:53.163Z,3937.28
2022-12-04T10:00:53.126Z,3737.6
2022-12-04T10:01:53.286Z,3563.52
2022-12-04T10:02:53.579Z,3537.92
2022-12-04T10:03:53.752Z,3517.44
2022-12-04T10:04:53.754Z,3289.6
2022-12-04T10:05:53.915Z,3507.2
2022-12-04T10:06:54.078Z,3865.6
2022-12-04T10:07:54.326Z,4290.56
2022-12-04T10:08:54.356Z,4362.24
2022-12-04T10:09:54.874Z,4024.32
2022-12-04T10:10:54.604Z,3973.12
2022-12-04T10:11:54.783Z,3773.44
2022-12-04T10:12:54.897Z,3724.8
2022-12-04T10:13:55.057Z,3891.2
2022-12-04T10:14:55.204Z,3983.36
2022-12-04T10:15:55.559Z,3776
2022-12-04T10:16:55.519Z,3596.8
2022-12-04T10:17:55.692Z,3584
2022-12-04T10:18:55.807Z,3732.48
2022-12-04T10:19:56.201Z,3845.12
2022-12-04T10:20:56.132Z,3937.28
2022-12-04T10:21:56.286Z,3914.24
2022-12-04T10:22:56.421Z,4316.16
2022-12-04T10:23:56.573Z,4121.6
2022-12-04T10:24:56.744Z,4042.24
2022-12-04T10:25:56.882Z,4147.2
2022-12-04T10:26:57.040Z,4295.68
2022-12-04T10:27:57.167Z,4323.84
2022-12-04T10:28:57.322Z,4341.76
2022-12-04T10:29:57.795Z,4738.56
2022-12-04T10:30:57.669Z,4961.28
2022-12-04T10:31:57.670Z,4979.2
2022-12-04T10:32:57.835Z,4682.24
2022-12-04T10:33:57.981Z,4367.36
2022-12-04T10:34:58.134Z,4746.24
2022-12-04T10:35:58.235Z,5012.48
2022-12-04T10:36:58.415Z,5237.76
2022-12-04T10:37:58.540Z,4879.36
2022-12-04T10:38:58.641Z,4710.4
2022-12-04T10:39:59.065Z,4628.48
2022-12-04T10:40:58.948Z,4689.92
2022-12-04T10:41:59.104Z,4654.08
2022-12-04T10:42:59.249Z,4574.72
2022-12-04T10:43:59.394Z,4971.52
2022-12-04T10:44:59.552Z,4646.4
2022-12-04T10:45:59.702Z,4567.04
2022-12-04T10:46:59.905Z,4712.96
2022-12-04T10:48:00.001Z,4416
2022-12-04T10:49:00.152Z,4346.88
2022-12-04T10:50:00.271Z,4124.16
2022-12-04T10:51:00.404Z,4170.24
2022-12-04T10:52:00.515Z,4346.88
2022-12-04T10:53:00.672Z,4334.08
2022-12-04T10:54:00.761Z,4344.32
2022-12-04T10:55:00.908Z,4224
2022-12-04T10:56:01.009Z,4257.28
2022-12-04T10:57:01.199Z,4157.44
2022-12-04T10:58:01.329Z,3939.84
2022-12-04T10:59:01.472Z,3988.48
2022-12-04T11:00:01.631Z,4029.44
2022-12-04T11:01:01.713Z,4165.12
2022-12-04T11:02:06.493Z,4149.76
2022-12-04T11:03:02.032Z,4239.36
2022-12-04T11:04:02.112Z,4203.52
2022-12-04T11:05:02.288Z,4101.12
2022-12-04T11:06:02.425Z,4065.28
2022-12-04T11:07:02.572Z,4154.88
2022-12-04T11:08:03.005Z,4303.36
2022-12-04T11:09:02.872Z,4126.72
2022-12-04T11:10:02.992Z,4037.12
2022-12-04T11:11:03.133Z,3944.96
2022-12-04T11:12:03.295Z,3632.64
2022-12-04T11:13:03.437Z,3584
2022-12-04T11:14:03.600Z,3430.4
2022-12-04T11:15:03.746Z,3409.92
2022-12-04T11:16:03.961Z,3269.12
2022-12-04T11:17:04.052Z,3517.44
2022-12-04T11:18:04.141Z,3240.96
2022-12-04T11:19:04.304Z,3151.36
2022-12-04T11:20:04.469Z,3294.72
2022-12-04T11:21:04.598Z,3351.04
2022-12-04T11:22:04.763Z,3200
2022-12-04T11:23:04.844Z,3312.64
2022-12-04T11:24:05.002Z,3594.24
2022-12-04T11:25:05.151Z,3765.76
2022-12-04T11:26:06.354Z,3745.28
2022-12-04T11:27:05.414Z,3868.16
2022-12-04T11:28:05.570Z,3576.32
2022-12-04T11:29:05.658Z,3351.04
2022-12-04T11:30:05.814Z,3430.4
2022-12-04T11:31:06.031Z,3668.48
2022-12-04T11:32:07.911Z,3834.88
2022-12-04T11:33:06.269Z,3904
2022-12-04T11:34:06.417Z,3768.32
2022-12-04T11:35:06.623Z,3550.72
2022-12-04T11:36:06.761Z,3755.52
2022-12-04T11:37:06.847Z,4065.28
2022-12-04T11:38:06.980Z,3952.64
2022-12-04T11:39:07.089Z,3594.24
2022-12-04T11:40:07.187Z,3443.2
2022-12-04T11:41:07.327Z,3312.64
2022-12-04T11:42:07.474Z,3197.44
2022-12-04T11:43:07.633Z,3660.8
2022-12-04T11:44:07.789Z,3499.52
2022-12-04T11:45:07.936Z,3443.2
2022-12-04T11:46:08.090Z,3765.76
2022-12-04T11:47:08.284Z,3563.52
2022-12-04T11:48:08.394Z,3614.72
2022-12-04T11:49:08.545Z,3855.36
2022-12-04T11:50:08.698Z,3996.16
2022-12-04T11:51:08.835Z,3530.24
2022-12-04T11:52:08.991Z,3371.52
2022-12-04T11:53:09.146Z,3456
2022-12-04T11:54:09.299Z,3225.6
2022-12-04T11:55:09.465Z,2995.2
2022-12-04T11:56:09.591Z,2910.72
2022-12-04T11:57:09.751Z,2964.48
2022-12-04T11:58:09.908Z,2913.28
2022-12-04T11:59:10.028Z,2849.28
2022-12-04T12:00:10.151Z,2688
2022-12-04T12:01:10.295Z,2466.56
2022-12-04T12:02:10.503Z,2572.8
2022-12-04T12:03:10.687Z,3020.8
2022-12-04T12:04:10.658Z,3258.88
2022-12-04T12:05:10.827Z,3189.76
2022-12-04T12:06:10.969Z,3105.28
2022-12-04T12:07:11.112Z,2723.84
2022-12-04T12:08:11.271Z,2570.24
2022-12-04T12:09:11.368Z,2530.56
2022-12-04T12:10:11.466Z,2478.08
2022-12-04T12:11:11.622Z,2462.72
2022-12-04T12:12:11.764Z,2325.76
2022-12-04T12:13:11.917Z,2419.2
2022-12-04T12:14:12.076Z,2474.24
2022-12-04T12:15:12.214Z,2496
2022-12-04T12:16:12.374Z,2453.76
2022-12-04T12:17:12.483Z,2373.12
2022-12-04T12:18:12.984Z,2400
2022-12-04T12:19:12.734Z,2375.68
2022-12-04T12:20:12.877Z,2544.64
2022-12-04T12:21:13.027Z,2667.52
2022-12-04T12:22:13.205Z,2512.64
2022-12-04T12:23:13.328Z,2254.08
2022-12-04T12:24:13.494Z,2062.08
2022-12-04T12:25:13.615Z,2094.08
2022-12-04T12:26:13.735Z,2293.76
2022-12-04T12:27:13.839Z,2479.36
2022-12-04T12:28:13.998Z,2608.64
2022-12-04T12:29:14.145Z,2602.24
2022-12-04T12:30:14.349Z,2574.08
2022-12-04T12:31:14.602Z,2464
2022-12-04T12:32:14.648Z,2475.52
2022-12-04T12:33:14.740Z,2510.08
2022-12-04T12:34:14.933Z,2816
2022-12-04T12:35:15.054Z,3084.8
2022-12-04T12:36:15.202Z,3584
2022-12-04T12:37:15.348Z,3691.52
2022-12-04T12:38:15.460Z,3758.08
2022-12-04T12:39:15.621Z,3637.76
2022-12-04T12:40:15.773Z,3758.08
2022-12-04T12:41:15.914Z,3880.96
2022-12-04T12:42:16.067Z,4019.2
2022-12-04T12:43:16.265Z,4136.96
2022-12-04T12:44:16.410Z,3909.12
2022-12-04T12:45:16.518Z,3781.12
2022-12-04T12:46:16.724Z,3819.52
2022-12-04T12:47:16.817Z,3612.16
2022-12-04T12:48:16.972Z,3450.88
2022-12-04T12:49:17.126Z,3243.52
2022-12-04T12:50:17.284Z,3307.52
2022-12-04T12:51:29.425Z,3294.72
2022-12-04T12:52:17.563Z,3051.52